EGMD/LYX METAR and TAF weather

Enter ICAO airport designator
Station Type Date Time Source
EGMD METAR 2020/04/07 16:20 UTC NOAA

EGMD 071620Z AUTO 07013KT 9999 NCD 15/10 Q1027


Station Type Date Time Source
EGMD Decoded METAR 2020/04/07 16:20 UTC NOAA

Lydd Airport , United Kingdom (EGMD) 50-57N 000-56E
Apr 07, 2020 - 12:20 PM EDT / 2020.04.07 1620 UTC
Wind: from the ENE (070 degrees) at 15 MPH (13 KT):0
Visibility: greater than 7 mile(s):0
Temperature: 59 F (15 C)
Dew Point: 50 F (10 C)
Relative Humidity: 72%
Pressure (altimeter): 30.33 in. Hg (1027 hPa)
ob: EGMD 071620Z AUTO 07013KT 9999 NCD 15/10 Q1027
cycle: 16

Station Type Date Time Source
EGMD TAF UTC NOAA

Error!

Example: see airport list